Latest Weather Observations for Coolangatta

IDN60801

Issued at 10:03 pm EST Saturday 24 June 2017 (issued every 30 minutes, with the page automatically refreshed every 10 minutes)

About weather observations | Map of weather stations | Latest weather observations for NSW | Other Formats
Station Details ID: 040717 Name: COOLANGATTA Lat: -28.17 Lon: 153.51 Height: 4.0 m
Data from the previous 72 hours. | See also: Recent months at Coolangatta
Date/Time
EST
Temp
°C
App
Temp
°C
Dew
Point
°C
Rel
Hum
%
Delta-T
°C
Wind Press
QNH
hPa
Press
MSL
hPa
Rain since
9am
mm
Dir  Spd
km/h
Gust
km/h
Spd
kts
Gust
kts
24/10:00pm 12.6 11.2 11.0 90 0.8 SW 9 11 5 6 1018.9 1018.9 0.0
24/09:30pm 12.6 12.1 10.7 88 1.0 SW 4 7 2 4 1018.8 1018.8 0.0
24/09:00pm 12.8 11.4 10.9 88 1.0 WSW 9 13 5 7 1018.7 1018.7 0.0
24/08:30pm 13.3 13.6 10.8 85 1.3 CALM 0 6 0 3 1018.5 1018.5 0.0
24/08:00pm 13.7 12.4 11.4 86 1.2 SW 9 11 5 6 1018.4 1018.4 0.0
24/07:30pm 13.7 12.9 11.0 84 1.4 WSW 6 9 3 5 1018.1 1018.1 0.0
24/07:00pm 14.0 12.8 10.2 78 2.0 WSW 7 9 4 5 1017.8 1017.8 0.0
24/06:30pm 14.7 13.6 10.5 76 2.2 SW 7 9 4 5 1017.6 1017.6 0.0
24/06:00pm 16.0 14.8 10.3 69 3.0 S 7 11 4 6 1017.1 1017.1 0.0
24/05:30pm 17.6 16.3 10.0 61 4.0 SE 7 11 4 6 1016.7 1016.7 0.0
24/05:00pm 18.6 16.2 10.2 58 4.5 SSE 13 17 7 9 1016.4 1016.4 0.0
24/04:30pm 19.8 16.3 10.2 54 5.2 SE 19 24 10 13 1016.1 1016.1 0.0
24/04:00pm 21.2 18.5 9.1 46 6.4 S 13 17 7 9 1015.9 1015.9 0.0
24/03:30pm 21.6 18.2 7.8 41 7.2 S 15 19 8 10 1015.6 1015.6 0.0
24/03:00pm 22.3 19.4 8.1 40 7.4 S 13 17 7 9 1015.4 1015.4 0.0
24/02:30pm 22.9 20.1 8.6 40 7.6 SSW 13 22 7 12 1015.3 1015.3 0.0
24/02:00pm 23.3 19.9 7.8 37 8.1 SSW 15 22 8 12 1015.4 1015.4 0.0
24/01:30pm 22.9 18.2 6.2 34 8.5 SSW 20 30 11 16 1015.3 1015.3 0.0
24/01:00pm 23.3 19.5 7.4 36 8.3 SSW 17 28 9 15 1015.4 1015.4 0.0
24/12:30pm 22.9 19.8 7.4 37 8.1 SSW 13 20 7 11 1015.7 1015.7 0.0
24/12:00pm 22.7 20.1 6.0 34 8.4 S 9 15 5 8 1016.2 1016.2 0.0
24/11:30am 22.6 20.3 7.6 38 7.8 ESE 9 15 5 8 1016.6 1016.6 0.0
24/11:00am 21.9 21.4 11.9 53 5.6 ESE 6 15 3 8 1017.1 1017.1 0.0
24/10:30am 21.8 19.8 8.7 43 6.9 W 9 13 5 7 1017.6 1017.6 0.0
24/10:00am 19.4 18.8 12.2 63 4.0 WSW 7 11 4 6 1018.0 1018.0 0.0
24/09:30am 17.5 17.2 11.5 68 3.3 SW 4 11 2 6 1018.0 1018.0 0.0
24/09:00am 15.6 16.0 12.5 82 1.7 S 2 7 1 4 1018.0 1018.0 0.2
24/08:30am 13.8 13.3 12.2 90 0.9 S 6 7 3 4 1017.5 1017.5 0.2
24/08:00am 12.2 12.0 11.7 97 0.3 SW 4 7 2 4 1017.4 1017.4 0.2
24/07:30am 10.8 10.6 10.3 97 0.3 WSW 2 7 1 4 1017.0 1017.0 0.2
24/07:00am 9.7 8.4 9.1 96 0.3 W 6 7 3 4 1017.0 1017.0 0.2
24/06:30am 9.4 9.1 8.6 95 0.4 CALM 0 9 0 5 1016.6 1016.6 0.2
24/06:00am 9.7 9.4 8.8 94 0.4 CALM 0 0 0 0 1016.3 1016.3 0.2
24/05:30am 10.5 10.1 9.9 96 0.3 WSW 2 9 1 5 1015.8 1015.8 0.2
24/05:00am 10.6 8.9 10.0 96 0.3 WSW 9 11 5 6 1015.6 1015.6 0.2
24/04:30am 10.1 10.0 9.3 95 0.4 CALM 0 0 0 0 1015.5 1015.5 0.2
24/04:00am 10.7 9.6 9.9 95 0.4 WSW 6 9 3 5 1015.8 1015.8 0.2
24/03:30am 10.6 9.5 9.8 95 0.4 W 6 9 3 5 1016.1 1016.1 0.2
24/03:00am 10.5 9.3 9.7 95 0.4 WSW 6 11 3 6 1016.3 1016.3 0.0
24/02:30am 10.7 9.6 9.9 95 0.4 W 6 7 3 4 1016.3 1016.3 0.0
24/02:00am 10.5 9.1 9.7 95 0.4 WSW 7 9 4 5 1016.4 1016.4 0.0
24/01:30am 10.6 9.2 9.7 94 0.5 WSW 7 9 4 5 1017.0 1017.0 0.0
24/01:00am 11.8 10.5 11.2 96 0.3 WSW 9 13 5 7 1017.4 1017.4 0.0
24/12:30am 11.7 9.9 10.9 95 0.4 WSW 11 13 6 7 1017.2 1017.2 0.0
24/12:00am 11.9 10.6 11.1 95 0.4 WSW 9 15 5 8 1017.6 1017.6 0.0
 
Date/Time
EST
Temp
°C
App
Temp
°C
Dew
Point
°C
Rel
Hum
%
Delta-T
°C
Wind Press
QNH
hPa
Press
MSL
hPa
Rain since
9am
mm
Dir  Spd
km/h
Gust
km/h
Spd
kts
Gust
kts
23/11:30pm 11.6 11.8 10.7 94 0.5 CALM 0 7 0 4 1018.1 1018.1 0.0
23/11:00pm 11.6 10.5 10.5 93 0.6 W 7 9 4 5 1018.5 1018.5 0.0
23/10:30pm 12.0 11.0 11.1 94 0.5 WSW 7 13 4 7 1018.5 1018.5 0.0
23/10:00pm 12.7 11.2 11.9 95 0.4 WSW 11 13 6 7 1018.6 1018.6 0.0
23/09:30pm 12.6 11.0 11.7 94 0.5 WSW 11 11 6 6 1018.8 1018.8 0.0
23/09:00pm 13.4 12.7 12.1 92 0.7 WSW 7 9 4 5 1018.9 1018.9 0.0
23/08:30pm 13.8 12.6 12.9 94 0.5 WSW 11 13 6 7 1018.9 1018.9 0.0
23/08:00pm 13.9 13.1 12.8 93 0.6 WSW 9 11 5 6 1018.9 1018.9 0.0
23/07:30pm 14.1 13.8 12.8 92 0.7 WSW 6 9 3 5 1018.6 1018.6 0.0
23/07:00pm 14.5 13.4 13.2 92 0.7 WSW 11 13 6 7 1018.5 1018.5 0.0
23/06:30pm 15.1 14.4 13.3 89 1.0 WSW 9 11 5 6 1018.1 1018.1 0.0
23/06:00pm 15.9 15.7 13.7 87 1.2 WSW 7 11 4 6 1018.1 1018.1 0.0
23/05:30pm 16.7 16.2 12.5 76 2.3 N 7 9 4 5 1018.0 1018.0 0.0
23/05:00pm 19.3 18.0 12.6 65 3.7 NNE 11 15 6 8 1018.3 1018.3 0.0
23/04:30pm 20.2 19.0 12.7 62 4.2 NNE 11 15 6 8 1018.1 1018.1 0.0
23/04:00pm 20.5 19.0 13.2 63 4.2 NNE 13 17 7 9 1017.9 1017.9 0.0
23/03:30pm 20.7 19.2 13.2 62 4.3 NNE 13 17 7 9 1018.1 1018.1 0.0
23/03:00pm 20.9 19.8 13.1 61 4.4 NE 11 15 6 8 1018.0 1018.0 0.0
23/02:30pm 20.6 19.0 12.8 61 4.4 ENE 13 17 7 9 1018.4 1018.4 0.0
23/02:00pm 20.8 19.2 12.8 60 4.5 NE 13 17 7 9 1018.7 1018.7 0.0
23/01:30pm 20.7 18.7 12.7 60 4.5 NE 15 19 8 10 1019.0 1019.0 0.0
23/01:00pm 21.0 19.1 12.9 60 4.6 NE 15 20 8 11 1019.3 1019.3 0.0
23/12:30pm 20.7 18.7 12.7 60 4.5 NE 15 20 8 11 1019.8 1019.8 0.0
23/12:00pm 21.1 18.4 13.0 60 4.6 NE 19 20 10 11 1020.4 1020.4 0.0
23/11:30am 21.8 20.5 12.6 56 5.2 W 11 20 6 11 1020.9 1020.9 0.0
23/11:00am 21.0 19.8 12.7 59 4.7 SSE 11 15 6 8 1021.6 1021.6 0.0
23/10:30am 20.5 18.8 12.5 60 4.5 SSE 13 19 7 10 1022.2 1022.2 0.0
23/10:00am 20.0 18.6 12.3 61 4.3 S 11 15 6 8 1022.5 1022.5 0.0
23/09:30am 19.7 19.1 13.4 67 3.6 SSW 9 13 5 7 1022.7 1022.7 0.0
23/09:00am 18.3 18.2 13.8 75 2.6 SW 7 11 4 6 1022.7 1022.7 0.0
23/08:30am 16.6 17.0 13.7 83 1.6 SSW 4 9 2 5 1022.4 1022.4 0.0
23/08:00am 14.5 15.5 13.2 92 0.7 CALM 0 0 0 0 1022.3 1022.3 0.0
23/07:30am 13.1 12.8 12.6 97 0.3 SSW 6 7 3 4 1022.2 1022.2 0.0
23/07:00am 12.1 11.3 11.6 97 0.3 SW 7 7 4 4 1022.2 1022.2 0.0
23/06:30am 11.9 12.3 11.3 96 0.3 CALM 0 0 0 0 1021.8 1021.8 0.0
23/06:00am 11.4 10.5 10.5 94 0.5 SSW 6 7 3 4 1021.5 1021.5 0.0
23/05:30am 12.4 11.5 11.5 94 0.5 SW 7 9 4 5 1021.3 1021.3 0.0
23/05:00am 13.0 12.5 12.1 94 0.5 SW 6 9 3 5 1021.1 1021.1 0.0
23/04:30am 12.6 11.8 11.7 94 0.5 WSW 7 11 4 6 1021.1 1021.1 0.0
23/04:00am 12.5 11.6 11.2 92 0.7 SW 7 7 4 4 1021.4 1021.4 0.0
23/03:30am 13.2 12.5 12.1 93 0.6 SW 7 9 4 5 1021.5 1021.5 0.0
23/03:00am 13.0 12.2 11.7 92 0.7 WSW 7 9 4 5 1021.8 1021.8 0.0
23/02:30am 13.0 13.4 11.4 90 0.8 CALM 0 0 0 0 1021.9 1021.9 0.0
23/02:00am 13.6 12.0 11.7 88 1.0 WSW 11 15 6 8 1022.0 1022.0 0.0
23/01:30am 13.4 12.3 12.1 92 0.7 SW 9 11 5 6 1022.4 1022.4 0.0
23/01:00am 13.1 12.0 10.8 86 1.2 WSW 7 11 4 6 1022.7 1022.7 0.0
23/12:30am 14.1 13.8 11.6 85 1.3 WSW 4 9 2 5 1022.7 1022.7 0.0
23/12:00am 13.8 14.6 12.4 91 0.8 CALM 0 0 0 0 1023.0 1023.0 0.0
 
Date/Time
EST
Temp
°C
App
Temp
°C
Dew
Point
°C
Rel
Hum
%
Delta-T
°C
Wind Press
QNH
hPa
Press
MSL
hPa
Rain since
9am
mm
Dir  Spd
km/h
Gust
km/h
Spd
kts
Gust
kts
22/11:30pm 13.6 13.1 12.2 91 0.8 S 6 9 3 5 1023.4 1023.4 0.0
22/11:00pm 13.0 11.7 11.4 90 0.8 SW 9 11 5 6 1023.6 1023.6 0.0
22/10:30pm 13.4 14.1 12.1 92 0.7 CALM 0 4 0 2 1023.6 1023.6 0.0
22/10:00pm 12.8 11.6 11.5 92 0.7 SW 9 11 5 6 1023.9 1023.9 0.0
22/09:30pm 12.6 11.3 11.3 92 0.7 WSW 9 11 5 6 1023.8 1023.8 0.0
22/09:00pm 13.2 11.6 11.4 89 0.9 SW 11 13 6 7 1024.0 1024.0 0.0
22/08:30pm 13.1 11.5 11.7 91 0.7 WSW 11 13 6 7 1024.0 1024.0 0.0
22/08:00pm 13.5 12.4 11.9 90 0.9 SW 9 11 5 6 1024.1 1024.1 0.0
22/07:30pm 13.7 13.3 12.3 91 0.8 SW 6 9 3 5 1024.2 1024.2 0.0
22/07:00pm 13.7 13.1 11.6 87 1.1 WSW 6 7 3 4 1023.9 1023.9 0.0
22/06:30pm 14.3 12.8 12.0 86 1.2 WSW 11 13 6 7 1023.7 1023.7 0.0
22/06:00pm 14.4 13.7 11.4 82 1.6 SW 6 9 3 5 1023.4 1023.4 0.0
22/05:30pm 15.2 15.6 11.2 77 2.1 CALM 0 0 0 0 1023.2 1023.2 0.0
22/05:00pm 17.6 17.4 10.5 63 3.8 SSW 2 7 1 4 1023.0 1023.0 0.0
22/04:30pm 19.3 17.3 10.0 55 5.0 SSW 11 17 6 9 1022.8 1022.8 0.0
22/04:00pm 20.2 18.9 11.4 57 4.8 SSE 9 11 5 6 1022.7 1022.7 0.0
22/03:30pm 20.4 18.2 10.8 54 5.2 SE 13 17 7 9 1022.7 1022.7 0.0
22/03:00pm 21.3 18.1 11.1 52 5.6 SE 19 24 10 13 1022.7 1022.7 0.0
22/02:30pm 21.3 18.4 9.5 47 6.3 S 15 22 8 12 1022.8 1022.8 0.0
22/02:00pm 21.1 16.3 9.0 46 6.4 SSE 24 32 13 17 1022.9 1022.9 0.0
22/01:30pm 21.6 17.7 8.8 44 6.8 SSE 19 26 10 14 1022.9 1022.9 0.0
22/01:00pm 21.6 17.9 10.1 48 6.2 S 20 30 11 16 1023.2 1023.2 0.0
22/12:30pm 21.7 18.1 10.5 49 6.1 SSE 20 28 11 15 1023.6 1023.6 0.0
22/12:00pm 21.2 17.9 11.0 52 5.6 S 19 33 10 18 1024.1 1024.1 0.0
22/11:30am 20.7 19.2 13.2 62 4.3 SSW 13 19 7 10 1024.5 1024.5 0.0
22/11:00am 19.7 17.7 12.7 64 3.9 SW 15 20 8 11 1025.0 1025.0 0.0
22/10:30am 19.2 16.8 12.7 66 3.6 SSW 17 22 9 12 1025.5 1025.5 0.0
22/10:00am 19.5 17.1 12.8 65 3.8 SSW 17 22 9 12 1025.5 1025.5 0.0
22/09:30am 19.0 17.0 12.7 67 3.5 SSW 15 24 8 13 1025.5 1025.5 0.0
22/09:00am 17.8 15.5 11.6 67 3.4 SW 15 20 8 11 1025.6 1025.6 0.0
22/08:30am 17.2 15.2 11.5 69 3.1 SSW 13 20 7 11 1025.3 1025.3 0.0
22/08:00am 16.5 14.7 11.0 70 2.9 SSW 11 17 6 9 1025.1 1025.1 0.0
22/07:30am 16.3 14.2 11.2 72 2.7 SW 13 20 7 11 1024.9 1024.9 0.0
22/07:00am 16.0 14.0 11.6 75 2.4 SSW 13 19 7 10 1024.5 1024.5 0.0
22/06:30am 15.4 14.4 12.2 81 1.7 SW 9 15 5 8 1024.0 1024.0 0.0
22/06:00am 15.1 13.4 12.4 84 1.5 SSW 13 17 7 9 1024.0 1024.0 0.0
22/05:30am 16.1 14.0 11.1 72 2.7 SSW 13 20 7 11 1023.6 1023.6 0.0
22/05:00am 16.5 13.5 10.6 68 3.1 SSW 17 24 9 13 1023.3 1023.3 0.0
22/04:30am 16.2 13.5 10.3 68 3.1 SSW 15 22 8 12 1022.9 1022.9 0.0
22/04:00am 16.6 13.9 10.2 66 3.4 SW 15 20 8 11 1022.9 1022.9 0.0
22/03:30am 16.4 14.6 10.9 70 2.9 SW 11 17 6 9 1022.9 1022.9 0.0
22/03:00am 16.8 14.5 11.7 72 2.8 SSW 15 20 8 11 1023.0 1023.0 0.0
22/02:30am 16.9 14.3 12.0 73 2.7 SSW 17 22 9 12 1022.9 1022.9 0.0
22/02:00am 17.1 15.3 12.2 73 2.7 SSW 13 20 7 11 1023.1 1023.1 0.0
22/01:30am 17.1 15.4 12.6 75 2.5 SSW 13 19 7 10 1023.1 1023.1 0.0
22/01:00am 17.1 15.9 12.8 76 2.4 SW 11 17 6 9 1023.4 1023.4 0.0
22/12:30am 16.7 15.1 12.7 77 2.2 SSW 13 20 7 11 1023.4 1023.4 0.0
22/12:00am 16.9 15.6 12.6 76 2.4 SW 11 17 6 9 1023.5 1023.5 0.0
 
Date/Time
EST
Temp
°C
App
Temp
°C
Dew
Point
°C
Rel
Hum
%
Delta-T
°C
Wind Press
QNH
hPa
Press
MSL
hPa
Rain since
9am
mm
Dir  Spd
km/h
Gust
km/h
Spd
kts
Gust
kts
21/11:30pm 16.5 15.7 12.8 79 2.1 SW 9 13 5 7 1023.8 1023.8 0.0
21/11:00pm 16.9 16.0 12.6 76 2.4 SW 9 17 5 9 1023.7 1023.7 0.0
21/10:30pm 17.5 16.6 12.6 73 2.7 SW 9 13 5 7 1024.4 1024.4 0.0

Other Formats:

Comma delimited format used in spreadsheet applications
http://www.bom.gov.au/fwo/IDN60801/IDN60801.94592.axf

JavaScript Object Notation format (JSON) in row-major order
http://www.bom.gov.au/fwo/IDN60801/IDN60801.94592.json